createdAt,value
2022-10-05T00:00:21.583Z,13.05
2022-10-05T00:03:27.491Z,13.05
2022-10-05T00:06:30.365Z,13.05
2022-10-05T00:09:32.474Z,13.05
2022-10-05T00:12:34.021Z,13.05
2022-10-05T00:15:35.978Z,13.04
2022-10-05T00:18:38.744Z,13.05
2022-10-05T00:21:40.261Z,13.04
2022-10-05T00:24:41.848Z,13.03
2022-10-05T00:27:45.752Z,13.04
2022-10-05T00:30:47.349Z,13.05
2022-10-05T00:33:49.447Z,13.05
2022-10-05T00:36:51.040Z,13.04
2022-10-05T00:43:08.031Z,13.03
2022-10-05T00:46:22.612Z,13.01
2022-10-05T00:49:52.565Z,13.00
2022-10-05T00:53:15.709Z,13.01
2022-10-05T00:56:34.088Z,13.00
2022-10-05T00:59:54.192Z,12.99
2022-10-05T01:02:58.482Z,12.99
2022-10-05T01:06:22.988Z,12.99
2022-10-05T01:09:37.349Z,12.98
2022-10-05T01:12:49.760Z,12.96
2022-10-05T01:16:14.507Z,12.96
2022-10-05T01:19:19.113Z,12.94
2022-10-05T01:22:48.570Z,12.93
2022-10-05T01:26:11.860Z,12.93
2022-10-05T01:29:43.597Z,12.93
2022-10-05T01:32:55.957Z,12.92
2022-10-05T01:36:07.490Z,12.92
2022-10-05T01:39:18.734Z,12.93
2022-10-05T01:42:36.614Z,12.93
2022-10-05T01:46:04.155Z,12.93
2022-10-05T01:49:20.693Z,12.92
2022-10-05T01:52:41.062Z,12.92
2022-10-05T01:55:56.455Z,12.91
2022-10-05T01:59:18.083Z,12.90
2022-10-05T02:02:23.659Z,12.90
2022-10-05T02:05:32.982Z,12.90
2022-10-05T02:09:26.701Z,12.88
2022-10-05T02:12:35.263Z,12.86
2022-10-05T02:15:46.515Z,12.84
2022-10-05T02:18:57.358Z,12.84
2022-10-05T02:22:05.756Z,12.84
2022-10-05T02:25:13.422Z,12.84
2022-10-05T02:28:41.164Z,12.85
2022-10-05T02:32:03.641Z,12.85
2022-10-05T02:35:14.056Z,12.83
2022-10-05T02:38:24.465Z,12.85
2022-10-05T02:41:47.536Z,12.86
2022-10-05T02:45:13.429Z,12.86
2022-10-05T02:48:27.093Z,12.86
2022-10-05T02:51:42.953Z,12.85
2022-10-05T02:54:54.149Z,12.84
2022-10-05T02:58:14.568Z,12.84
2022-10-05T03:01:42.523Z,12.82
2022-10-05T03:05:00.094Z,12.79
2022-10-05T03:08:19.589Z,12.77
2022-10-05T03:11:21.073Z,12.76
2022-10-05T03:14:46.654Z,12.75
2022-10-05T03:18:06.011Z,12.73
2022-10-05T03:21:14.320Z,12.71
2022-10-05T03:24:42.336Z,12.71
2022-10-05T03:28:01.199Z,12.68
2022-10-05T03:31:24.846Z,12.69
2022-10-05T03:34:35.464Z,12.69
2022-10-05T03:37:50.846Z,12.69
2022-10-05T03:41:11.209Z,12.68
2022-10-05T03:44:24.828Z,12.69
2022-10-05T03:47:48.192Z,12.67
2022-10-05T03:50:58.905Z,12.66
2022-10-05T03:54:10.532Z,12.67
2022-10-05T03:57:21.432Z,12.65
2022-10-05T04:00:23.602Z,12.66
2022-10-05T04:03:47.687Z,12.65
2022-10-05T04:06:51.418Z,12.64
2022-10-05T04:09:54.939Z,12.62
2022-10-05T04:13:18.553Z,12.62
2022-10-05T04:16:30.073Z,12.62
2022-10-05T04:19:40.456Z,12.61
2022-10-05T04:22:53.465Z,12.61
2022-10-05T04:26:02.432Z,12.60
2022-10-05T04:29:25.925Z,12.58
2022-10-05T04:32:43.367Z,12.55
2022-10-05T04:35:50.825Z,12.55
2022-10-05T04:39:17.092Z,12.53
2022-10-05T04:42:34.554Z,12.52
2022-10-05T04:46:10.960Z,12.49
2022-10-05T04:49:32.022Z,12.49
2022-10-05T04:53:01.902Z,12.49
2022-10-05T04:56:11.946Z,12.49
2022-10-05T04:59:32.058Z,12.47
2022-10-05T05:02:59.821Z,12.45
2022-10-05T05:06:44.092Z,12.44
2022-10-05T05:10:04.586Z,12.41
2022-10-05T05:13:36.523Z,12.40
2022-10-05T05:16:41.317Z,12.38
2022-10-05T05:20:09.251Z,12.36
2022-10-05T05:23:42.965Z,12.35
2022-10-05T05:27:02.883Z,12.34
2022-10-05T05:30:14.176Z,12.31
2022-10-05T05:33:25.005Z,12.32
2022-10-05T05:36:38.454Z,12.30
2022-10-05T05:39:54.956Z,12.30
2022-10-05T05:43:06.788Z,12.29
2022-10-05T05:46:34.026Z,12.27
2022-10-05T05:49:53.464Z,12.23
2022-10-05T05:53:34.707Z,12.25
2022-10-05T05:56:45.083Z,12.23
2022-10-05T06:00:07.956Z,12.23
2022-10-05T06:03:13.036Z,12.22
2022-10-05T06:06:17.707Z,12.21
2022-10-05T06:09:22.283Z,12.20
2022-10-05T06:12:32.344Z,12.21
2022-10-05T06:15:54.195Z,12.22
2022-10-05T06:18:59.889Z,12.34
2022-10-05T06:22:07.728Z,12.61
2022-10-05T06:25:12.311Z,12.81
2022-10-05T06:28:18.432Z,12.82
2022-10-05T06:31:37.476Z,12.78
2022-10-05T06:35:04.988Z,12.73
2022-10-05T06:38:58.901Z,12.67
2022-10-05T06:42:06.461Z,12.61
2022-10-05T06:45:20.021Z,12.58
2022-10-05T06:48:50.045Z,12.56
2022-10-05T06:51:58.431Z,12.54
2022-10-05T06:55:24.031Z,12.53
2022-10-05T06:58:34.545Z,12.50
2022-10-05T07:01:53.300Z,12.47
2022-10-05T07:04:54.841Z,12.47
2022-10-05T07:08:00.997Z,12.47
2022-10-05T07:11:16.274Z,12.44
2022-10-05T07:14:33.034Z,12.45
2022-10-05T07:18:00.489Z,12.44
2022-10-05T07:21:29.828Z,12.42
2022-10-05T07:25:05.786Z,12.41
2022-10-05T07:28:27.582Z,12.41
2022-10-05T07:32:01.068Z,12.42
2022-10-05T07:35:39.733Z,12.41
2022-10-05T07:38:51.951Z,12.43
2022-10-05T07:42:06.293Z,12.44
2022-10-05T07:45:38.030Z,12.46
2022-10-05T07:48:47.722Z,12.48
2022-10-05T07:51:55.817Z,12.52
2022-10-05T07:55:16.148Z,12.56
2022-10-05T07:58:31.417Z,12.59
2022-10-05T08:01:36.472Z,12.63
2022-10-05T08:04:46.116Z,12.68
2022-10-05T08:07:52.845Z,12.72
2022-10-05T08:11:02.157Z,12.76
2022-10-05T08:14:17.016Z,12.81
2022-10-05T08:17:26.521Z,12.84
2022-10-05T08:20:55.036Z,12.89
2022-10-05T08:24:04.205Z,12.91
2022-10-05T08:27:09.856Z,12.92
2022-10-05T08:30:13.594Z,12.90
2022-10-05T08:33:19.126Z,12.90
2022-10-05T08:36:31.876Z,12.90
2022-10-05T08:39:42.655Z,12.93
2022-10-05T08:43:14.535Z,12.98
2022-10-05T08:46:17.722Z,12.99
2022-10-05T08:49:43.698Z,13.02
2022-10-05T08:53:03.220Z,13.03
2022-10-05T08:56:38.026Z,13.06
2022-10-05T08:59:50.861Z,13.07
2022-10-05T09:03:15.951Z,13.06
2022-10-05T09:06:23.733Z,13.05
2022-10-05T09:09:38.137Z,13.05
2022-10-05T09:13:01.561Z,13.09
2022-10-05T09:16:25.243Z,13.10
2022-10-05T09:19:35.675Z,13.13
2022-10-05T09:22:58.481Z,13.16
2022-10-05T09:26:09.262Z,13.16
2022-10-05T09:29:31.876Z,13.17
2022-10-05T09:32:36.363Z,13.21
2022-10-05T09:35:37.864Z,13.25
2022-10-05T09:38:39.397Z,13.30
2022-10-05T09:42:18.239Z,13.33
2022-10-05T09:45:53.424Z,13.34
2022-10-05T09:49:01.301Z,13.35
2022-10-05T09:52:40.093Z,13.38
2022-10-05T09:56:00.446Z,13.37
2022-10-05T09:59:42.914Z,13.38
2022-10-05T10:03:00.006Z,13.41
2022-10-05T10:06:16.710Z,13.41
2022-10-05T10:09:38.718Z,13.43
2022-10-05T10:12:46.060Z,13.44
2022-10-05T10:16:12.421Z,13.48
2022-10-05T10:19:39.431Z,13.50
2022-10-05T10:23:23.326Z,13.55
2022-10-05T10:26:49.382Z,13.58
2022-10-05T10:30:03.197Z,13.63
2022-10-05T10:33:19.167Z,13.69
2022-10-05T10:36:33.153Z,13.73
2022-10-05T10:39:56.556Z,13.77
2022-10-05T10:43:23.296Z,13.81
2022-10-05T10:46:35.932Z,13.83
2022-10-05T10:49:56.359Z,13.85
2022-10-05T10:53:31.863Z,13.90
2022-10-05T10:56:44.795Z,13.93
2022-10-05T11:00:17.545Z,13.97
2022-10-05T11:03:42.055Z,14.02
2022-10-05T11:07:04.916Z,14.06
2022-10-05T11:10:20.862Z,14.10
2022-10-05T11:13:34.593Z,14.15
2022-10-05T11:16:48.335Z,14.19
2022-10-05T11:20:04.456Z,14.24
2022-10-05T11:23:21.340Z,14.30
2022-10-05T11:26:32.586Z,14.32
2022-10-05T11:29:55.854Z,14.35
2022-10-05T11:33:12.831Z,14.40
2022-10-05T11:36:32.181Z,14.44
2022-10-05T11:39:43.649Z,14.48
2022-10-05T11:43:10.023Z,14.57
2022-10-05T11:46:24.546Z,14.61
2022-10-05T11:49:37.463Z,14.65
2022-10-05T11:52:44.957Z,14.72
2022-10-05T11:56:23.699Z,14.77
2022-10-05T11:59:34.733Z,14.83
2022-10-05T12:02:41.402Z,14.96
2022-10-05T12:06:09.264Z,15.17
2022-10-05T12:10:02.809Z,15.35
2022-10-05T12:13:04.308Z,15.53
2022-10-05T12:16:16.624Z,15.66
2022-10-05T12:19:31.733Z,15.77
2022-10-05T12:22:46.115Z,15.89
2022-10-05T12:25:51.741Z,15.97
2022-10-05T12:29:04.240Z,16.08
2022-10-05T12:32:08.830Z,16.22
2022-10-05T12:35:47.329Z,16.31
2022-10-05T12:38:57.140Z,16.41
2022-10-05T12:42:07.721Z,16.51
2022-10-05T12:45:15.181Z,16.57
2022-10-05T12:48:32.302Z,16.66
2022-10-05T12:51:55.515Z,16.72
2022-10-05T12:58:23.031Z,16.77
2022-10-05T13:02:16.112Z,16.83
2022-10-05T13:05:34.921Z,16.90
2022-10-05T13:08:59.945Z,16.95
2022-10-05T13:12:26.583Z,16.93
2022-10-05T13:15:34.669Z,16.91
2022-10-05T13:23:12.687Z,16.84
2022-10-05T13:26:34.774Z,16.78
2022-10-05T13:29:52.280Z,16.72
2022-10-05T13:32:58.788Z,16.71
2022-10-05T13:36:24.092Z,16.68
2022-10-05T13:39:47.108Z,16.66
2022-10-05T13:43:04.100Z,16.65
2022-10-05T13:46:25.479Z,16.64
2022-10-05T13:49:44.223Z,16.63
2022-10-05T13:53:07.749Z,16.63
2022-10-05T13:56:41.428Z,16.60
2022-10-05T13:59:57.454Z,16.58
2022-10-05T14:03:00.979Z,16.57
2022-10-05T14:06:13.325Z,16.56
2022-10-05T14:09:20.908Z,16.53
2022-10-05T14:12:23.424Z,16.50
2022-10-05T14:15:37.363Z,16.49
2022-10-05T14:19:03.988Z,16.46
2022-10-05T14:22:13.375Z,16.45
2022-10-05T14:25:19.807Z,16.43
2022-10-05T14:28:35.201Z,16.44
2022-10-05T14:31:37.231Z,16.41
2022-10-05T14:35:05.186Z,16.39
2022-10-05T14:38:29.460Z,16.38
2022-10-05T14:41:36.314Z,16.36
2022-10-05T14:44:37.924Z,16.34
2022-10-05T14:48:09.922Z,16.33
2022-10-05T14:51:25.292Z,16.32
2022-10-05T14:54:43.896Z,16.33
2022-10-05T14:57:59.878Z,16.33
2022-10-05T15:01:24.268Z,16.33
2022-10-05T15:04:50.653Z,16.32
2022-10-05T15:07:57.277Z,16.30
2022-10-05T15:11:09.251Z,16.30
2022-10-05T15:14:20.052Z,16.29
2022-10-05T15:17:31.008Z,16.28
2022-10-05T15:20:56.989Z,16.28
2022-10-05T15:24:24.244Z,16.30
2022-10-05T15:27:37.306Z,16.29
2022-10-05T15:30:51.933Z,16.28
2022-10-05T15:34:13.337Z,16.26
2022-10-05T15:37:25.875Z,16.24
2022-10-05T15:40:28.038Z,16.23
2022-10-05T15:44:13.273Z,16.23
2022-10-05T15:47:51.131Z,16.20
2022-10-05T15:51:02.732Z,16.19
2022-10-05T15:54:40.454Z,16.17
2022-10-05T15:58:21.479Z,16.15
2022-10-05T16:01:45.193Z,16.13
2022-10-05T16:05:40.680Z,16.10
2022-10-05T16:09:21.104Z,16.08
2022-10-05T16:12:34.106Z,16.07
2022-10-05T16:15:53.390Z,16.05
2022-10-05T16:19:03.948Z,16.05
2022-10-05T16:22:31.280Z,16.05
2022-10-05T16:25:56.237Z,16.04
2022-10-05T16:29:33.016Z,16.03
2022-10-05T16:32:42.842Z,16.03
2022-10-05T16:35:56.311Z,16.02
2022-10-05T16:39:07.405Z,16.02
2022-10-05T16:42:23.994Z,16.01
2022-10-05T16:45:45.689Z,16.02
2022-10-05T16:48:53.622Z,16.00
2022-10-05T16:51:59.758Z,15.99
2022-10-05T16:55:07.722Z,15.99
2022-10-05T16:58:25.608Z,15.98
2022-10-05T17:01:49.909Z,15.97
2022-10-05T17:05:00.873Z,15.97
2022-10-05T17:08:15.769Z,15.94
2022-10-05T17:11:35.496Z,16.15
2022-10-05T17:15:08.981Z,16.10
2022-10-05T17:19:03.724Z,16.04
2022-10-05T17:22:32.424Z,16.00
2022-10-05T17:25:52.664Z,15.97
2022-10-05T17:29:00.187Z,15.93
2022-10-05T17:32:11.125Z,15.89
2022-10-05T17:35:18.782Z,15.88
2022-10-05T17:38:24.116Z,15.86
2022-10-05T17:41:30.223Z,15.85
2022-10-05T17:44:31.816Z,15.84
2022-10-05T17:47:55.273Z,15.83
2022-10-05T17:51:15.520Z,15.83
2022-10-05T17:54:49.792Z,15.84
2022-10-05T17:57:52.463Z,15.83
2022-10-05T18:00:56.812Z,15.83
2022-10-05T18:04:13.435Z,15.83
2022-10-05T18:07:19.571Z,15.84
2022-10-05T18:10:27.826Z,15.84
2022-10-05T18:13:41.607Z,15.83
2022-10-05T18:17:12.354Z,15.84
2022-10-05T18:20:29.161Z,15.84
2022-10-05T18:23:35.879Z,15.85
2022-10-05T18:26:59.489Z,15.87
2022-10-05T18:30:16.933Z,15.86
2022-10-05T18:33:55.425Z,15.87
2022-10-05T18:37:18.941Z,15.87
2022-10-05T18:40:23.353Z,15.88
2022-10-05T18:43:37.345Z,15.89
2022-10-05T18:46:45.993Z,15.89
2022-10-05T18:49:50.332Z,15.88
2022-10-05T18:53:19.629Z,15.88
2022-10-05T18:56:38.368Z,15.86
2022-10-05T18:59:59.398Z,15.85
2022-10-05T19:03:18.579Z,15.87
2022-10-05T19:06:30.990Z,15.88
2022-10-05T19:09:35.585Z,15.89
2022-10-05T19:13:05.085Z,15.90
2022-10-05T19:16:15.486Z,15.89
2022-10-05T19:19:51.089Z,15.91
2022-10-05T19:23:14.051Z,15.88
2022-10-05T19:26:41.584Z,15.85
2022-10-05T19:30:21.945Z,15.83
2022-10-05T19:33:33.589Z,15.81
2022-10-05T19:37:08.440Z,15.79
2022-10-05T19:40:34.982Z,15.81
2022-10-05T19:43:46.912Z,15.81
2022-10-05T19:47:04.443Z,15.83
2022-10-05T19:50:30.368Z,15.85
2022-10-05T19:53:44.248Z,15.85
2022-10-05T19:56:52.899Z,15.87
2022-10-05T19:59:58.189Z,15.87
2022-10-05T20:03:30.796Z,15.88
2022-10-05T20:06:33.304Z,15.88
2022-10-05T20:09:51.873Z,15.89
2022-10-05T20:12:59.654Z,15.89
2022-10-05T20:16:35.098Z,15.89
2022-10-05T20:19:57.524Z,15.89
2022-10-05T20:23:23.717Z,15.87
2022-10-05T20:27:01.456Z,15.86
2022-10-05T20:30:04.207Z,15.85
2022-10-05T20:33:11.580Z,15.84
2022-10-05T20:36:13.148Z,15.84
2022-10-05T20:39:16.005Z,15.84
2022-10-05T20:42:18.836Z,15.81
2022-10-05T20:45:20.393Z,15.77
2022-10-05T20:48:21.884Z,15.74
2022-10-05T20:51:23.427Z,15.72
2022-10-05T20:54:26.557Z,15.69
2022-10-05T20:57:28.135Z,15.66
2022-10-05T21:00:49.927Z,15.62
2022-10-05T21:03:51.492Z,15.60
2022-10-05T21:06:54.031Z,15.59
2022-10-05T21:09:55.762Z,15.58
2022-10-05T21:12:57.293Z,15.59
2022-10-05T21:15:58.878Z,15.57
2022-10-05T21:19:00.451Z,15.58
2022-10-05T21:22:02.559Z,15.58
2022-10-05T21:25:04.500Z,15.58
2022-10-05T21:28:06.424Z,15.55
2022-10-05T21:31:08.918Z,15.55
2022-10-05T21:34:10.539Z,15.53
2022-10-05T21:37:12.200Z,15.51
2022-10-05T21:40:13.839Z,15.50
2022-10-05T21:43:15.349Z,15.49
2022-10-05T21:46:20.378Z,15.47
2022-10-05T21:49:22.196Z,15.44
2022-10-05T21:52:24.056Z,15.39
2022-10-05T21:55:25.620Z,15.29
2022-10-05T21:58:28.416Z,15.21
2022-10-05T22:01:30.393Z,15.12
2022-10-05T22:04:31.973Z,15.01
2022-10-05T22:07:33.552Z,14.92
2022-10-05T22:10:35.118Z,14.84
2022-10-05T22:13:45.743Z,14.75
2022-10-05T22:16:47.599Z,14.86
2022-10-05T22:19:49.839Z,14.76
2022-10-05T22:22:55.344Z,14.71
2022-10-05T22:25:56.984Z,14.64
2022-10-05T22:28:58.723Z,14.57
2022-10-05T22:32:00.330Z,14.49
2022-10-05T22:35:01.930Z,14.43
2022-10-05T22:38:04.333Z,14.36
2022-10-05T22:41:10.379Z,14.28
2022-10-05T22:44:12.017Z,14.23
2022-10-05T22:47:13.601Z,14.20
2022-10-05T22:50:15.401Z,14.16
2022-10-05T22:53:17.012Z,14.12
2022-10-05T22:56:18.691Z,14.11
2022-10-05T22:59:20.312Z,14.06
2022-10-05T23:02:21.875Z,14.01
2022-10-05T23:05:23.396Z,13.98
2022-10-05T23:08:25.396Z,13.95
2022-10-05T23:11:28.460Z,13.93
2022-10-05T23:14:31.115Z,13.89
2022-10-05T23:17:35.025Z,13.85
2022-10-05T23:20:37.335Z,13.81
2022-10-05T23:23:41.007Z,13.76
2022-10-05T23:26:42.598Z,13.71
2022-10-05T23:29:44.193Z,13.70
2022-10-05T23:32:45.795Z,13.67
2022-10-05T23:35:47.300Z,13.66
2022-10-05T23:38:49.352Z,13.63
2022-10-05T23:41:50.916Z,13.60
2022-10-05T23:44:52.468Z,13.59
2022-10-05T23:47:54.088Z,13.56
2022-10-05T23:50:55.770Z,13.54
2022-10-05T23:53:57.366Z,13.49
2022-10-05T23:56:58.874Z,13.44
